Welcome to Northern Hawkes Bay. New Zealand.
PWS Header
      nz Flag



Hit Counter


W3C Valid W3C Valid logo


    Wairoa

Select any of the Stations below to visit their websites.










Historic Data from Weather Underground
Select the location of interest below. Wairoa is the default. Please have patience, this Data is slow to load in.
Northern Hawkes Bay Historical Data
Daily Summary for April 15, 2017 Units:  English    Metric   Both
« Previous Day
Next Day »
Daily Weekly Monthly Yearly Custom
  High: Low: Average:
Temperature: 75.9 °F 55.2 °F 64.8 °F
Dew Point: 58.3 °F 52.9 °F 55.2 °F
Humidity: 94% 49% 73%
Wind Speed: 16.8mph 0mph 5.2mph
Wind Gust: 25.9mph - -
Wind- - WNW
Pressure: 29.8 in 29.7 in -
Precipitation: 0 in    
Historical Graphs
 
 
Tabular Data for April 15, 2017
Time Temperature Dew Point Pressure Wind Wind Speed Wind Gust Humidity Rainfall Rate (Hourly) solar
00:02 56.3 °F 54 °F 29.7 in Calm   1.6 mph 92% 0 in 0 W/m2
00:07 56.1 °F 53.8 °F 29.7 in Calm     92% 0 in 0 W/m2
00:12 56.1 °F 53.8 °F 29.7 in Calm     92% 0 in 0 W/m2
00:17 55.9 °F 54 °F 29.7 in Calm     93% 0 in 0 W/m2
00:22 55.8 °F 53.8 °F 29.7 in Calm     93% 0 in 0 W/m2
00:27 55.6 °F 53.6 °F 29.7 in Calm     93% 0 in 0 W/m2
00:32 55.4 °F 53.4 °F 29.7 in Calm     93% 0 in 0 W/m2
00:37 55.2 °F 53.2 °F 29.7 in Calm     93% 0 in 0 W/m2
00:42 55.4 °F 53.8 °F 29.7 in Calm     94% 0 in 0 W/m2
00:47 55.2 °F 53.4 °F 29.7 in Calm     94% 0 in 0 W/m2
01:07 58.8 °F 56.1 °F 29.7 in NW 4.5 mph 6.9 mph 91% 0 in 0 W/m2
01:12 59.4 °F 55.6 °F 29.7 in NW 3.1 mph 6.9 mph 87% 0 in 0 W/m2
01:17 59.4 °F 55.2 °F 29.7 in NNW 2.2 mph 5.4 mph 86% 0 in 0 W/m2
01:22 59.2 °F 55 °F 29.7 in NW 2.2 mph 5.4 mph 86% 0 in 0 W/m2
01:27 59.2 °F 55 °F 29.7 in Calm   4.5 mph 86% 0 in 0 W/m2
01:32 58.8 °F 55 °F 29.7 in Calm   3.8 mph 87% 0 in 0 W/m2
01:37 58.5 °F 54.7 °F 29.7 in NW 2.2 mph 3.1 mph 87% 0 in 0 W/m2
01:42 58.1 °F 54.7 °F 29.7 in NNW 1.6 mph 3.1 mph 88% 0 in 0 W/m2
01:47 57.9 °F 54.3 °F 29.7 in NNW 3.1 mph 4.5 mph 88% 0 in 0 W/m2
01:52 57.9 °F 54.7 °F 29.7 in NNW 2.2 mph 4.5 mph 89% 0 in 0 W/m2
01:57 57.9 °F 54.7 °F 29.7 in NNW 2.2 mph 4.5 mph 89% 0 in 0 W/m2
02:02 57.9 °F 54.7 °F 29.7 in NW 2.2 mph 4.5 mph 89% 0 in 0 W/m2
02:07 58.1 °F 54.9 °F 29.7 in NW 1.6 mph 4.5 mph 89% 0 in 0 W/m2
02:12 58.3 °F 55 °F 29.7 in Calm   3.8 mph 89% 0 in 0 W/m2
02:17 58.3 °F 55 °F 29.7 in Calm   3.1 mph 89% 0 in 0 W/m2
02:22 58.1 °F 54.7 °F 29.7 in Calm     88% 0 in 0 W/m2
02:27 57.6 °F 54 °F 29.7 in Calm     88% 0 in 0 W/m2
02:32 57.2 °F 53.8 °F 29.7 in Calm     88% 0 in 0 W/m2
02:37 57 °F 53.8 °F 29.7 in Calm     89% 0 in 0 W/m2
02:42 56.8 °F 54 °F 29.7 in Calm     90% 0 in 0 W/m2
02:47 57 °F 54.3 °F 29.7 in Calm     91% 0 in 0 W/m2
02:52 57 °F 54.3 °F 29.7 in Calm     91% 0 in 0 W/m2
02:57 56.7 °F 54.1 °F 29.7 in NW 1.6 mph 3.1 mph 91% 0 in 0 W/m2
03:02 56.5 °F 54.1 °F 29.7 in NW 2.2 mph 3.1 mph 92% 0 in 0 W/m2
03:07 56.5 °F 54.1 °F 29.7 in Calm   3.8 mph 92% 0 in 0 W/m2
03:12 56.3 °F 54 °F 29.7 in Calm   3.8 mph 92% 0 in 0 W/m2
03:17 55.9 °F 53.8 °F 29.7 in Calm   0.7 mph 92% 0 in 0 W/m2
03:22 55.8 °F 53.4 °F 29.7 in Calm     92% 0 in 0 W/m2
03:27 55.6 °F 53.6 °F 29.7 in Calm     93% 0 in 0 W/m2
03:32 55.6 °F 53.6 °F 29.7 in Calm     93% 0 in 0 W/m2
03:37 55.6 °F 54 °F 29.7 in Calm     94% 0 in 0 W/m2
03:42 55.6 °F 54 °F 29.7 in Calm     94% 0 in 0 W/m2
03:47 55.6 °F 54 °F 29.7 in Calm     94% 0 in 0 W/m2
03:52 55.6 °F 54 °F 29.7 in Calm     94% 0 in 0 W/m2
03:57 55.6 °F 54 °F 29.7 in Calm     94% 0 in 0 W/m2
04:02 55.6 °F 54 °F 29.7 in Calm     94% 0 in 0 W/m2
04:07 55.6 °F 54 °F 29.7 in Calm     94% 0 in 0 W/m2
04:12 55.6 °F 53.6 °F 29.7 in Calm     93% 0 in 0 W/m2
04:17 55.8 °F 53.8 °F 29.7 in North 3.1 mph 4.5 mph 93% 0 in 0 W/m2
04:22 55.8 °F 53.8 °F 29.7 in NNW 2.2 mph 4.5 mph 93% 0 in 0 W/m2
04:27 55.9 °F 53.8 °F 29.7 in NNW 2.2 mph 4.5 mph 92% 0 in 0 W/m2
04:32 56.1 °F 53.8 °F 29.7 in NNW 3.1 mph 4.5 mph 92% 0 in 0 W/m2
04:37 56.5 °F 54.1 °F 29.7 in NNW 3.8 mph 6.9 mph 92% 0 in 0 W/m2
04:42 56.8 °F 54.3 °F 29.7 in North 3.1 mph 6.9 mph 91% 0 in 0 W/m2
04:47 57.4 °F 54.1 °F 29.7 in North 3.8 mph 6 mph 89% 0 in 0 W/m2
04:52 57.7 °F 54 °F 29.7 in NNW 3.1 mph 6 mph 87% 0 in 0 W/m2
04:57 58.1 °F 54 °F 29.7 in NNW 2.2 mph 6 mph 86% 0 in 0 W/m2
05:02 58.5 °F 54 °F 29.7 in NNW 2.2 mph 6 mph 85% 0 in 0 W/m2
05:07 58.6 °F 53.8 °F 29.7 in NNW 3.8 mph 7.6 mph 84% 0 in 0 W/m2
05:12 59 °F 54 °F 29.7 in NNW 5.4 mph 7.6 mph 83% 0 in 0 W/m2
05:17 59.4 °F 53.4 °F 29.7 in NNW 3.8 mph 7.6 mph 81% 0 in 0 W/m2
05:22 59.2 °F 53.4 °F 29.7 in NNW 3.8 mph 7.6 mph 81% 0 in 0 W/m2
05:27 59 °F 53.2 °F 29.7 in NNW 3.8 mph 6.9 mph 81% 0 in 0 W/m2
05:32 59.2 °F 53.1 °F 29.7 in NNW 3.8 mph 6 mph 80% 0 in 0 W/m2
05:37 59 °F 53.2 °F 29.7 in NNW 3.1 mph 6 mph 81% 0 in 0 W/m2
05:42 59 °F 53.2 °F 29.7 in NW 2.2 mph 6 mph 81% 0 in 0 W/m2
05:47 58.8 °F 53.2 °F 29.7 in NW 4.5 mph 6.9 mph 82% 0 in 0 W/m2
05:52 59 °F 53.2 °F 29.7 in NNW 3.1 mph 6.9 mph 81% 0 in 0 W/m2
05:57 59 °F 52.9 °F 29.7 in NNW 0.7 mph 6 mph 80% 0 in 0 W/m2
06:02 59 °F 53.2 °F 29.7 in NNW 3.1 mph 6 mph 81% 0 in 0 W/m2
06:07 59 °F 53.2 °F 29.7 in NNW 3.1 mph 5.4 mph 81% 0 in 0 W/m2
06:12 58.8 °F 53.2 °F 29.7 in NNW 3.8 mph 6 mph 82% 0 in 0 W/m2
06:17 58.8 °F 53.8 °F 29.7 in NNW 3.1 mph 6 mph 83% 0 in 0 W/m2
06:22 58.6 °F 53.4 °F 29.7 in NNW 3.8 mph 6 mph 83% 0 in 0 W/m2
06:27 58.5 °F 53.8 °F 29.7 in NNW 1.6 mph 6 mph 84% 0 in 0 W/m2
06:32 58.5 °F 53.8 °F 29.7 in North 3.1 mph 6 mph 84% 0 in 1 W/m2
06:37 58.6 °F 53.8 °F 29.7 in North 3.8 mph 6 mph 84% 0 in 4 W/m2
06:55 59.5 °F 53.8 °F 29.7 in NNW 3.8 mph 6 mph 81% 0 in 15 W/m2
07:00 59.7 °F 54 °F 29.7 in North 2.2 mph 8.3 mph 81% 0 in 18 W/m2
07:05 59.9 °F 53.8 °F 29.7 in North 3.1 mph 8.3 mph 80% 0 in 76 W/m2
07:10 60.6 °F 54.3 °F 29.7 in NNW 3.1 mph 6 mph 80% 0 in 92 W/m2
07:15 61.3 °F 54.1 °F 29.7 in NNW 3.1 mph 6 mph 77% 0 in 106 W/m2
07:20 61.9 °F 54.1 °F 29.7 in North 1.6 mph 5.4 mph 76% 0 in 120 W/m2
07:25 62.4 °F 54.3 °F 29.7 in North 2.2 mph 5.4 mph 75% 0 in 133 W/m2
07:30 63.1 °F 54.3 °F 29.7 in NNW 2.2 mph 5.4 mph 73% 0 in 147 W/m2
07:35 63.3 °F 54.1 °F 29.7 in North 3.1 mph 6.9 mph 72% 0 in 68 W/m2
07:40 62.6 °F 53.4 °F 29.7 in NNW 3.8 mph 6.9 mph 72% 0 in 161 W/m2
07:45 63 °F 54.1 °F 29.7 in NNW 3.8 mph 6 mph 73% 0 in 184 W/m2
07:50 64 °F 54.9 °F 29.7 in NNW 2.2 mph 7.6 mph 72% 0 in 201 W/m2
07:55 64.9 °F 55.2 °F 29.7 in North 2.2 mph 7.6 mph 71% 0 in 218 W/m2
08:00 65.8 °F 55.4 °F 29.7 in North 3.1 mph 6.9 mph 69% 0 in 243 W/m2
08:05 66.4 °F 55.6 °F 29.7 in NNW 4.5 mph 6.9 mph 68% 0 in 264 W/m2
08:10 66.9 °F 55.6 °F 29.7 in NNW 3.8 mph 9.2 mph 67% 0 in 281 W/m2
08:15 67.5 °F 55.8 °F 29.7 in NNW 4.5 mph 9.2 mph 66% 0 in 299 W/m2
08:20 67.8 °F 56.1 °F 29.7 in North 7.6 mph 10.7 mph 66% 0 in 317 W/m2
08:25 68 °F 55.4 °F 29.7 in North 7.6 mph 13 mph 64% 0 in 265 W/m2
08:30 67.5 °F 55.8 °F 29.7 in North 6 mph 13 mph 66% 0 in 85 W/m2
08:35 66.7 °F 55.6 °F 29.7 in NNW 5.4 mph 12.1 mph 67% 0 in 269 W/m2
08:40 67.8 °F 56.5 °F 29.7 in North 3.8 mph 9.2 mph 67% 0 in 357 W/m2
08:42 68.2 °F 56.5 °F 29.7 in North 4.5 mph 9.2 mph 66% 0 in 361 W/m2
08:47 68.7 °F 56.1 °F 29.7 in NNW 4.5 mph 9.2 mph 64% 0 in 367 W/m2
08:52 69.1 °F 56.5 °F 29.7 in North 5.4 mph 10.7 mph 64% 0 in 360 W/m2
08:57 69.6 °F 56.5 °F 29.7 in North 6.9 mph 13.6 mph 63% 0 in 371 W/m2
09:02 70 °F 55.6 °F 29.7 in NNW 6 mph 14.5 mph 60% 0 in 383 W/m2
09:07 70.5 °F 56.5 °F 29.7 in NNW 7.6 mph 14.5 mph 61% 0 in 399 W/m2
09:12 70.7 °F 55.2 °F 29.7 in NNW 9.8 mph 14.5 mph 58% 0 in 407 W/m2
09:17 71.1 °F 55.9 °F 29.7 in NNW 6.9 mph 14.5 mph 59% 0 in 411 W/m2
09:22 70.9 °F 54.9 °F 29.7 in NNW 6 mph 19.7 mph 57% 0 in 410 W/m2
09:27 71.1 °F 55 °F 29.7 in NNW 10.7 mph 19.7 mph 57% 0 in 409 W/m2
09:32 70.9 °F 54.9 °F 29.7 in NNW 11.4 mph 18.3 mph 57% 0 in 203 W/m2
09:37 70.7 °F 54.7 °F 29.7 in NNW 10.7 mph 20.6 mph 57% 0 in 98 W/m2
09:42 70.9 °F 54.9 °F 29.7 in NW 12.1 mph 20.6 mph 57% 0 in 81 W/m2
09:47 70.9 °F 54.9 °F 29.7 in NW 12.1 mph 19.7 mph 57% 0 in 72 W/m2
09:52 71.1 °F 55 °F 29.7 in NW 9.8 mph 22.1 mph 57% 0 in 72 W/m2
09:57 71.1 °F 54.7 °F 29.7 in NW 13.6 mph 22.1 mph 56% 0 in 65 W/m2
10:02 71.1 °F 55 °F 29.7 in NW 7.6 mph 20.6 mph 57% 0 in 62 W/m2
10:07 71.4 °F 55.4 °F 29.7 in NW 6.9 mph 19.7 mph 57% 0 in 64 W/m2
10:12 72.3 °F 55.8 °F 29.7 in NW 9.8 mph 17.4 mph 56% 0 in 62 W/m2
10:17 72.1 °F 54.7 °F 29.7 in NW 9.8 mph 19.7 mph 54% 0 in 61 W/m2
10:22 72.3 °F 55.2 °F 29.7 in NNW 10.7 mph 19.7 mph 55% 0 in 67 W/m2
10:27 72.3 °F 55.2 °F 29.7 in NNW 9.8 mph 15.9 mph 55% 0 in 71 W/m2
10:32 72.7 °F 55 °F 29.7 in North 10.7 mph 16.8 mph 54% 0 in 259 W/m2
10:37 72.7 °F 54.7 °F 29.7 in North 9.2 mph 18.3 mph 53% 0 in 247 W/m2
10:42 72.7 °F 55.6 °F 29.7 in North 9.2 mph 18.3 mph 55% 0 in 444 W/m2
10:47 72.9 °F 54.9 °F 29.7 in North 9.2 mph 19.7 mph 53% 0 in 455 W/m2
10:53 73 °F 54.9 °F 29.7 in North 9.2 mph 19.7 mph 53% 0 in 236 W/m2
10:58 73 °F 54.9 °F 29.7 in North 9.2 mph 19 mph 53% 0 in 470 W/m2
11:03 72.5 °F 54.9 °F 29.7 in North 11.4 mph 16.8 mph 54% 0 in 459 W/m2
11:08 72.1 °F 54.1 °F 29.7 in North 9.8 mph 22.1 mph 53% 0 in 481 W/m2
11:13 72.3 °F 54.9 °F 29.7 in North 9.8 mph 22.1 mph 54% 0 in 485 W/m2
11:18 72.5 °F 54.9 °F 29.7 in NNW 13.6 mph 19.7 mph 54% 0 in 489 W/m2
11:23 72.7 °F 54.7 °F 29.7 in NW 11.4 mph 19.7 mph 53% 0 in 504 W/m2
11:28 72.9 °F 55.2 °F 29.7 in NW 9.2 mph 19.7 mph 54% 0 in 479 W/m2
11:33 72.3 °F 54.3 °F 29.7 in NNW 12.1 mph 21.3 mph 53% 0 in 312 W/m2
11:38 72.1 °F 54.7 °F 29.7 in North 9.2 mph 21.3 mph 54% 0 in 497 W/m2
11:43 73.2 °F 55 °F 29.7 in North 8.3 mph 17.4 mph 53% 0 in 511 W/m2
11:48 74.1 °F 55.9 °F 29.7 in North 5.4 mph 17.4 mph 53% 0 in 507 W/m2
11:53 74.1 °F 55.4 °F 29.7 in North 9.2 mph 16.8 mph 52% 0 in 502 W/m2
11:58 73.9 °F 55.2 °F 29.7 in North 9.8 mph 16.8 mph 52% 0 in 501 W/m2
12:03 73.9 °F 55.8 °F 29.7 in North 7.6 mph 15.9 mph 53% 0 in 499 W/m2
12:08 74.1 °F 55.4 °F 29.7 in North 7.6 mph 16.8 mph 52% 0 in 492 W/m2
12:13 73.9 °F 54.7 °F 29.7 in North 13 mph 19.7 mph 51% 0 in 493 W/m2
12:18 73.6 °F 54.9 °F 29.7 in North 12.1 mph 19.7 mph 52% 0 in 484 W/m2
12:23 73.4 °F 54.7 °F 29.7 in North 10.7 mph 20.6 mph 52% 0 in 505 W/m2
12:28 73.2 °F 55 °F 29.7 in North 12.1 mph 20.6 mph 53% 0 in 486 W/m2
12:33 73.4 °F 55.8 °F 29.7 in NNW 11.4 mph 20.6 mph 54% 0 in 482 W/m2
12:38 73.8 °F 56.7 °F 29.7 in NNW 9.8 mph 17.4 mph 55% 0 in 481 W/m2
12:54 74.1 °F 54.9 °F 29.7 in NW 14.5 mph 22.1 mph 51% 0 in 469 W/m2
12:59 74.1 °F 54.9 °F 29.7 in NW 15.9 mph 22.1 mph 51% 0 in 478 W/m2
13:04 73.8 °F 56.1 °F 29.7 in NNW 6.9 mph 22.8 mph 54% 0 in 265 W/m2
13:09 72.9 °F 54.9 °F 29.7 in NW 14.5 mph 22.8 mph 53% 0 in 138 W/m2
13:14 72 °F 54 °F 29.7 in NW 12.1 mph 22.8 mph 53% 0 in 251 W/m2
13:19 72.1 °F 54.1 °F 29.7 in NW 12.1 mph 23.5 mph 53% 0 in 327 W/m2
13:24 73.9 °F 55.2 °F 29.7 in NW 13.6 mph 25.9 mph 52% 0 in 444 W/m2
13:29 74.5 °F 55.8 °F 29.7 in NW 10.7 mph 25.9 mph 52% 0 in 438 W/m2
13:34 73.8 °F 54.5 °F 29.7 in NNW 13 mph 22.8 mph 51% 0 in 316 W/m2
13:39 74.1 °F 54.9 °F 29.7 in North 13.6 mph 22.8 mph 51% 0 in 513 W/m2
13:45 74.7 °F 55.4 °F 29.7 in NNW 14.5 mph 22.8 mph 51% 0 in 438 W/m2
13:50 75.2 °F 55.9 °F 29.7 in NNW 9.8 mph 22.8 mph 51% 0 in 324 W/m2
13:56 75 °F 55.2 °F 29.7 in NNW 11.4 mph 21.3 mph 50% 0 in 357 W/m2
14:01 74.5 °F 55.2 °F 29.7 in North 16.8 mph 21.3 mph 51% 0 in 452 W/m2
14:06 74.5 °F 55.2 °F 29.7 in North 16.8 mph 23.5 mph 51% 0 in 492 W/m2
14:11 74.5 °F 55.8 °F 29.7 in North 14.5 mph 23.5 mph 52% 0 in 463 W/m2
14:16 74.5 °F 56.3 °F 29.7 in NNW 13 mph 23.5 mph 53% 0 in 388 W/m2
14:21 75 °F 55.8 °F 29.7 in NW 14.5 mph 20.6 mph 51% 0 in 210 W/m2
14:26 74.1 °F 55.9 °F 29.7 in NW 7.6 mph 19 mph 53% 0 in 223 W/m2
14:31 74.8 °F 55.6 °F 29.7 in NNW 10.7 mph 20.6 mph 51% 0 in 196 W/m2
14:36 75.6 °F 55.6 °F 29.7 in NNW 6.9 mph 20.6 mph 50% 0 in 150 W/m2
14:41 75.9 °F 55.4 °F 29.7 in NNW 8.3 mph 18.3 mph 49% 0 in 134 W/m2
14:46 75.6 °F 56.1 °F 29.7 in North 11.4 mph 18.3 mph 51% 0 in 112 W/m2
14:51 75.2 °F 55.2 °F 29.7 in NNE 11.4 mph 18.3 mph 50% 0 in 93 W/m2
14:52 75 °F 55.8 °F 29.7 in North 10.7 mph 18.3 mph 51% 0 in 88 W/m2
14:57 74.8 °F 56.7 °F 29.7 in North 8.3 mph 18.3 mph 53% 0 in 100 W/m2
15:02 74.8 °F 56.7 °F 29.7 in North 13 mph 18.3 mph 53% 0 in 248 W/m2
15:07 74.1 °F 56.5 °F 29.7 in NNE 6.9 mph 19.7 mph 54% 0 in 279 W/m2
15:12 74.1 °F 57 °F 29.7 in NNE 8.3 mph 19.7 mph 55% 0 in 275 W/m2
15:17 73.8 °F 56.7 °F 29.7 in North 6.9 mph 16.8 mph 55% 0 in 274 W/m2
15:22 73.8 °F 57 °F 29.7 in North 8.3 mph 16.8 mph 56% 0 in 258 W/m2
15:28 73.6 °F 57.4 °F 29.7 in NNW 9.2 mph 15.9 mph 57% 0 in 250 W/m2
15:33 73.4 °F 56.8 °F 29.7 in NNW 9.8 mph 15.9 mph 56% 0 in 253 W/m2
15:38 73.4 °F 57.4 °F 29.7 in NNW 10.7 mph 18.3 mph 57% 0 in 248 W/m2
15:43 73.6 °F 57.4 °F 29.7 in NNW 6.9 mph 18.3 mph 57% 0 in 249 W/m2
15:48 73.4 °F 57.4 °F 29.7 in NNW 9.2 mph 19 mph 57% 0 in 133 W/m2
15:53 72 °F 57.4 °F 29.7 in NW 7.6 mph 19 mph 60% 0 in 101 W/m2
15:58 70.3 °F 56.7 °F 29.7 in NW 8.3 mph 19 mph 62% 0 in 98 W/m2
16:03 69.6 °F 57.4 °F 29.7 in NNW 12.1 mph 19.7 mph 65% 0 in 86 W/m2
16:08 69.1 °F 56.8 °F 29.7 in North 11.4 mph 19.7 mph 65% 0 in 91 W/m2
16:13 69.1 °F 56.8 °F 29.7 in NNE 9.2 mph 18.3 mph 65% 0 in 98 W/m2
16:18 69.1 °F 57.4 °F 29.7 in North 8.3 mph 16.8 mph 66% 0 in 91 W/m2
16:23 68.9 °F 56.7 °F 29.7 in NNW 8.3 mph 15.2 mph 65% 0 in 65 W/m2
16:28 68.7 °F 56.8 °F 29.7 in NNW 10.7 mph 15.9 mph 66% 0 in 62 W/m2
16:33 68.5 °F 57.2 °F 29.7 in North 9.2 mph 15.9 mph 67% 0 in 74 W/m2
16:38 68.7 °F 57.7 °F 29.7 in North 5.4 mph 15.2 mph 68% 0 in 116 W/m2
16:43 70.2 °F 57.4 °F 29.7 in NNW 9.8 mph 15.2 mph 64% 0 in 96 W/m2
16:48 70.7 °F 57.6 °F 29.7 in NNW 4.5 mph 15.2 mph 63% 0 in 85 W/m2
16:53 70.7 °F 57.6 °F 29.7 in NW 4.5 mph 13 mph 63% 0 in 82 W/m2
16:58 71.8 °F 57.6 °F 29.7 in WNW 4.5 mph 8.3 mph 61% 0 in 76 W/m2
17:03 71.6 °F 57.6 °F 29.7 in NW 3.1 mph 12.1 mph 61% 0 in 48 W/m2
17:08 71.4 °F 58.3 °F 29.7 in NNW 3.8 mph 12.1 mph 63% 0 in 31 W/m2
17:13 69.8 °F 57 °F 29.7 in NNW 3.8 mph 8.3 mph 64% 0 in 22 W/m2
17:18 68.5 °F 57.6 °F 29.7 in North 5.4 mph 10.7 mph 68% 0 in 21 W/m2
17:23 67.6 °F 57.9 °F 29.7 in North 6 mph 10.7 mph 71% 0 in 13 W/m2
17:28 67.1 °F 58.3 °F 29.7 in North 5.4 mph 10.7 mph 73% 0 in 9 W/m2
17:33 66.7 °F 58.3 °F 29.7 in North 4.5 mph 10.7 mph 74% 0 in 6 W/m2
17:38 66.4 °F 58.3 °F 29.7 in North 5.4 mph 9.2 mph 75% 0 in 4 W/m2
17:43 66.2 °F 58.1 °F 29.7 in NNW 5.4 mph 9.8 mph 75% 0 in 2 W/m2
17:48 65.7 °F 58.3 °F 29.7 in North 4.5 mph 9.8 mph 77% 0 in 0 W/m2
17:53 65.5 °F 58.1 °F 29.7 in North 6 mph 9.2 mph 77% 0 in 0 W/m2
17:58 65.3 °F 57.9 °F 29.7 in North 5.4 mph 9.8 mph 77% 0 in 0 W/m2
18:03 65.3 °F 57.6 °F 29.7 in North 3.8 mph 9.8 mph 76% 0 in 0 W/m2
18:08 65.3 °F 57.6 °F 29.7 in NNW 3.8 mph 9.2 mph 76% 0 in 0 W/m2
18:13 65.3 °F 57.6 °F 29.7 in NNW 3.1 mph 8.3 mph 76% 0 in 0 W/m2
18:18 65.1 °F 57.4 °F 29.7 in NNW 2.2 mph 6.9 mph 76% 0 in 0 W/m2
18:23 64.8 °F 57.4 °F 29.7 in NW 2.2 mph 4.5 mph 77% 0 in 0 W/m2
18:28 64.4 °F 57.4 °F 29.7 in NNW 2.2 mph 5.4 mph 78% 0 in 0 W/m2
18:33 64.2 °F 57.6 °F 29.7 in NNW 5.4 mph 6.9 mph 79% 0 in 0 W/m2
18:38 64.2 °F 57.6 °F 29.7 in NNW 3.1 mph 7.6 mph 79% 0 in 0 W/m2
18:43 64.4 °F 57.4 °F 29.7 in North 6 mph 9.2 mph 78% 0 in 0 W/m2
18:48 64.6 °F 57.2 °F 29.7 in North 4.5 mph 9.2 mph 77% 0 in 0 W/m2
18:53 64.8 °F 57.4 °F 29.7 in North 6 mph 9.2 mph 77% 0 in 0 W/m2
18:58 64.8 °F 57 °F 29.7 in NNW 3.8 mph 9.8 mph 76% 0 in 0 W/m2
19:03 64.6 °F 57.2 °F 29.7 in NNW 5.4 mph 9.8 mph 77% 0 in 0 W/m2
19:08 64.4 °F 57 °F 29.7 in North 5.4 mph 9.2 mph 77% 0 in 0 W/m2
19:13 64.2 °F 56.8 °F 29.7 in North 3.1 mph 9.2 mph 77% 0 in 0 W/m2
19:18 64.4 °F 57 °F 29.7 in North 4.5 mph 9.2 mph 77% 0 in 0 W/m2
19:23 64.2 °F 56.8 °F 29.7 in NNW 2.2 mph 9.2 mph 77% 0 in 0 W/m2
19:28 64 °F 57 °F 29.7 in NNW 4.5 mph 7.6 mph 78% 0 in 0 W/m2
19:33 63.9 °F 57.2 °F 29.8 in NNW 4.5 mph 9.8 mph 79% 0 in 0 W/m2
19:38 63.7 °F 57.4 °F 29.7 in NNW 4.5 mph 9.8 mph 80% 0 in 0 W/m2
19:43 63.5 °F 57.2 °F 29.7 in NNW 4.5 mph 9.8 mph 80% 0 in 0 W/m2
19:48 63.3 °F 57.4 °F 29.7 in NNW 1.6 mph 9.2 mph 81% 0 in 0 W/m2
19:53 63.3 °F 57.4 °F 29.7 in NNW 5.4 mph 8.3 mph 81% 0 in 0 W/m2
19:58 63.1 °F 57.6 °F 29.8 in NNW 4.5 mph 7.6 mph 82% 0 in 0 W/m2
20:03 63.1 °F 57.6 °F 29.8 in NNW 5.4 mph 9.2 mph 82% 0 in 0 W/m2
20:08 62.8 °F 57.6 °F 29.8 in North 3.1 mph 9.2 mph 83% 0 in 0 W/m2
20:13 62.8 °F 57.6 °F 29.8 in NNW 2.2 mph 7.6 mph 83% 0 in 0 W/m2
20:18 62.6 °F 57.4 °F 29.8 in NNW 4.5 mph 8.3 mph 83% 0 in 0 W/m2
20:23 62.4 °F 57.6 °F 29.8 in NNW 6 mph 8.3 mph 84% 0 in 0 W/m2
20:28 62.4 °F 57.6 °F 29.8 in NNW 3.8 mph 8.3 mph 84% 0 in 0 W/m2
20:33 62.4 °F 57.2 °F 29.8 in North 3.8 mph 8.3 mph 83% 0 in 0 W/m2
20:38 62.4 °F 57.2 °F 29.8 in NNW 6 mph 9.2 mph 83% 0 in 0 W/m2
20:43 62.4 °F 56.8 °F 29.8 in NNW 4.5 mph 9.8 mph 82% 0 in 0 W/m2
20:48 62.4 °F 56.8 °F 29.8 in North 3.8 mph 9.8 mph 82% 0 in 0 W/m2
20:53 62.4 °F 56.5 °F 29.8 in North 4.5 mph 7.6 mph 81% 0 in 0 W/m2
20:58 62.4 °F 56.1 °F 29.8 in NNW 6 mph 10.7 mph 80% 0 in 0 W/m2
21:03 63 °F 55.2 °F 29.8 in NNW 6 mph 10.7 mph 76% 0 in 0 W/m2
21:08 63.1 °F 55 °F 29.8 in NNW 4.5 mph 9.8 mph 75% 0 in 0 W/m2
21:13 63.1 °F 55 °F 29.8 in NNW 5.4 mph 9.2 mph 75% 0 in 0 W/m2
21:18 62.4 °F 54.9 °F 29.8 in NNW 4.5 mph 8.3 mph 76% 0 in 0 W/m2
21:23 62.8 °F 54.9 °F 29.8 in NNW 3.1 mph 9.8 mph 75% 0 in 0 W/m2
21:28 62.6 °F 54.7 °F 29.8 in NNW 3.8 mph 9.8 mph 75% 0 in 0 W/m2
21:33 62.4 °F 54.9 °F 29.8 in NNW 3.1 mph 9.2 mph 76% 0 in 0 W/m2
21:38 62.8 °F 55 °F 29.8 in NW 3.8 mph 8.3 mph 76% 0 in 0 W/m2
21:43 62.1 °F 54.9 °F 29.8 in NNW 1.6 mph 6.9 mph 77% 0 in 0 W/m2
21:48 61.7 °F 54.3 °F 29.8 in NNW 3.1 mph 6.9 mph 77% 0 in 0 W/m2
21:53 61.7 °F 54.9 °F 29.8 in NNW 4.5 mph 6.9 mph 78% 0 in 0 W/m2
21:58 62.2 °F 55.2 °F 29.8 in NNW 3.8 mph 6 mph 78% 0 in 0 W/m2
22:03 61.5 °F 54.7 °F 29.8 in NNW 2.2 mph 6 mph 78% 0 in 0 W/m2
22:08 61 °F 54.3 °F 29.8 in North 2.2 mph 6 mph 79% 0 in 0 W/m2
22:13 60.4 °F 54.7 °F 29.8 in North 1.6 mph 6 mph 81% 0 in 0 W/m2
22:18 61 °F 55.6 °F 29.8 in Calm   6 mph 82% 0 in 0 W/m2
22:23 59.9 °F 54.7 °F 29.8 in NE 1.6 mph 4.5 mph 83% 0 in 0 W/m2
22:28 59.7 °F 54.7 °F 29.8 in Calm   4.5 mph 83% 0 in 0 W/m2
22:33 59.4 °F 54.1 °F 29.8 in NNW 3.8 mph 5.4 mph 83% 0 in 0 W/m2
22:38 59.4 °F 54.5 °F 29.8 in NW 3.8 mph 5.4 mph 84% 0 in 0 W/m2
22:43 58.8 °F 54.3 °F 29.8 in NW 2.2 mph 5.4 mph 85% 0 in 0 W/m2
22:48 58.6 °F 54.1 °F 29.8 in Calm   5.4 mph 85% 0 in 0 W/m2
22:51 58.6 °F 54.1 °F 29.8 in Calm   4.5 mph 85% 0 in 0 W/m2
22:56 58.5 °F 54 °F 29.8 in North 2.2 mph 3.1 mph 85% 0 in 0 W/m2
23:01 58.8 °F 54 °F 29.8 in Calm   3.1 mph 84% 0 in 0 W/m2
23:06 58.8 °F 54 °F 29.8 in Calm   3.1 mph 84% 0 in 0 W/m2
23:11 58.6 °F 53.4 °F 29.8 in Calm     83% 0 in 0 W/m2
23:16 58.3 °F 53.4 °F 29.8 in Calm     84% 0 in 0 W/m2
23:21 58.1 °F 53.2 °F 29.8 in Calm     84% 0 in 0 W/m2
23:26 58.5 °F 53.8 °F 29.8 in Calm     84% 0 in 0 W/m2
23:32 57.6 °F 52.9 °F 29.8 in Calm     84% 0 in 0 W/m2
23:37 57.6 °F 53.1 °F 29.8 in Calm     85% 0 in 0 W/m2
23:42 57.4 °F 52.9 °F 29.8 in Calm     85% 0 in 0 W/m2
23:47 57.4 °F 52.9 °F 29.8 in Calm     85% 0 in 0 W/m2
23:52 57.6 °F 53.4 °F 29.8 in Calm   3.8 mph 86% 0 in 0 W/m2
23:57 57.6 °F 53.4 °F 29.8 in Calm   3.8 mph 86% 0 in 0 W/m2
Northern Hawkes Bay. New Zealand Historic Data
Compliments of Weather Underground - 2 mb